LTBA/IST METAR and TAF weather

Enter ICAO airport designator
Station Type Date Time Source
LTBA METAR 2019/12/06 01:50 UTC NOAA

LTBA 060150Z 02005KT 9999 SCT035 07/03 Q1028 NOSIG


Station Type Date Time Source
LTBA Decoded METAR 2019/12/06 01:50 UTC NOAA

Istanbul / Ataturk, Turkey (LTBA) 40-58N 028-49E 37M
Dec 05, 2019 - 08:50 PM EST / 2019.12.06 0150 UTC
Wind: from the NNE (020 degrees) at 6 MPH (5 KT):0
Visibility: greater than 7 mile(s):0
Sky conditions: partly cloudy
Temperature: 44 F (7 C)
Dew Point: 37 F (3 C)
Relative Humidity: 75%
Pressure (altimeter): 30.36 in. Hg (1028 hPa)
ob: LTBA 060150Z 02005KT 9999 SCT035 07/03 Q1028 NOSIG
cycle: 2

Station Type Date Time Source
LTBA TAF 2019/12/05 18:03 UTC NOAA

TAF LTBA 051640Z 0518/0624 05015KT 9999 BKN032
BECMG 0519/0521 04005KT
BECMG 0522/0602 CAVOK

Example: see airport list